Stolt Shearwater — ZCRD9 — position and weather

sailwx.info

Track history (hours):
 
Tides and Currents Weather Stations Pressure Air Temp Water Temp Dewpoint Dewpoint Depression Visibility Wind Speed Wind Dir Waves Ship Positions

Stolt Shearwater

Last reported at 2015-Jan-23 16:12 UTC. Time now 2015-Jan-27 01:04 UTC.
Position N 32°07' E 033°29'.

Length 96 m; draft 5.1 m.

Type: Ship. MMSI: 319402000.

Date/timePositionNaut miles runAvg speedWind from/ knotsBaromVisibWave heightAir tempDewpointWater temp
2015-Jan-23 16:12N 32°07' E 033°29'61 2.4
2015-Jan-22 15:16N 31°50' E 034°38'2 2.2
2015-Jan-22 14:26N 31°51' E 034°37'0 0.0
2015-Jan-21 17:05N 31°51' E 034°36'  
2015-Jan-18 11:32N 37°25' E 025°56'1010.3
2015-Jan-18 10:33N 37°33' E 025°48'1110.8
2015-Jan-18 09:32N 37°44' E 025°47'66 2.0
2015-Jan-17 01:30N 38°47' E 026°11'14 6.8
2015-Jan-16 23:29N 38°44' E 025°53'121 8.1
2015-Jan-16 08:31N 37°44' E 023°40'1010.3
2015-Jan-16 07:33N 37°52' E 023°35'3 2.7
2015-Jan-16 06:27N 37°55' E 023°34'0 0.0
2015-Jan-16 05:33N 37°55' E 023°34'0 0.0
2015-Jan-16 04:33N 37°55' E 023°33'1 1.2
2015-Jan-16 03:33N 37°56' E 023°35'1 1.3
2015-Jan-16 02:31N 37°57' E 023°35'0 0.0
2015-Jan-16 01:31N 37°57' E 023°35'0 0.0
2015-Jan-16 00:31N 37°57' E 023°35'0 0.0
2015-Jan-15 23:31N 37°57' E 023°35'0 0.0
2015-Jan-15 22:31N 37°57' E 023°35'0 0.0
2015-Jan-15 21:31N 37°57' E 023°35'0 0.0
2015-Jan-15 20:31N 37°57' E 023°35'0 0.0
2015-Jan-15 19:31N 37°57' E 023°35'0 0.0
2015-Jan-15 18:31N 37°57' E 023°35'0 0.0
2015-Jan-15 17:31N 37°57' E 023°35'0 0.0
2015-Jan-15 16:33N 37°57' E 023°35'0 0.0
2015-Jan-15 15:31N 37°57' E 023°35'0 0.0
2015-Jan-15 14:28N 37°57' E 023°35'0 0.0
2015-Jan-15 13:31N 37°57' E 023°35'0 0.0
2015-Jan-15 12:31N 37°57' E 023°35'0 0.0
2015-Jan-15 11:31N 37°57' E 023°35'0 0.0
2015-Jan-15 10:31N 37°57' E 023°35'0 0.0
2015-Jan-15 09:31N 37°57' E 023°35'0 0.0
2015-Jan-15 08:31N 37°57' E 023°35'0 0.0
2015-Jan-15 07:31N 37°57' E 023°35'0 0.0
2015-Jan-15 06:28N 37°57' E 023°35'0 0.0
2015-Jan-15 05:33N 37°57' E 023°35'4 4.1
2015-Jan-15 04:33N 37°54' E 023°37'5 4.6
2015-Jan-15 03:33N 37°50' E 023°40'5 5.2
2015-Jan-15 02:33N 37°45' E 023°42'6 6.4
2015-Jan-15 01:33N 37°39' E 023°46'8 7.2
2015-Jan-15 00:28N 37°32' E 023°43'24 7.4
2015-Jan-14 21:12N 37°08' E 023°36'5 8.2
2015-Jan-14 20:33N 37°03' E 023°35'8 8.0
2015-Jan-14 19:33N 36°55' E 023°34'10 8.2
2015-Jan-14 18:17N 36°45' E 023°33'  
Track history (hours):
 
Tides and Currents Weather Stations Pressure Air Temp Water Temp Dewpoint Dewpoint Depression Visibility Wind Speed Wind Dir Waves Ship Positions

Stolt Shearwater

Last reported at 2015-Jan-23 16:12 UTC. Time now 2015-Jan-27 01:04 UTC.
Position N 32°07' E 033°29'.

Length 96 m; draft 5.1 m.

Type: Ship. MMSI: 319402000.

Date/timePositionNaut miles runAvg speedWind from/ knotsBaromVisibWave heightAir tempDewpointWater temp
2015-Jan-23 16:12N 32°07' E 033°29'61 2.4
2015-Jan-22 15:16N 31°50' E 034°38'2 2.2
2015-Jan-22 14:26N 31°51' E 034°37'0 0.0
2015-Jan-21 17:05N 31°51' E 034°36'  
2015-Jan-18 11:32N 37°25' E 025°56'1010.3
2015-Jan-18 10:33N 37°33' E 025°48'1110.8
2015-Jan-18 09:32N 37°44' E 025°47'66 2.0
2015-Jan-17 01:30N 38°47' E 026°11'14 6.8
2015-Jan-16 23:29N 38°44' E 025°53'121 8.1
2015-Jan-16 08:31N 37°44' E 023°40'1010.3
2015-Jan-16 07:33N 37°52' E 023°35'3 2.7
2015-Jan-16 06:27N 37°55' E 023°34'0 0.0
2015-Jan-16 05:33N 37°55' E 023°34'0 0.0
2015-Jan-16 04:33N 37°55' E 023°33'1 1.2
2015-Jan-16 03:33N 37°56' E 023°35'1 1.3
2015-Jan-16 02:31N 37°57' E 023°35'0 0.0
2015-Jan-16 01:31N 37°57' E 023°35'0 0.0
2015-Jan-16 00:31N 37°57' E 023°35'0 0.0
2015-Jan-15 23:31N 37°57' E 023°35'0 0.0
2015-Jan-15 22:31N 37°57' E 023°35'0 0.0
2015-Jan-15 21:31N 37°57' E 023°35'0 0.0
2015-Jan-15 20:31N 37°57' E 023°35'0 0.0
2015-Jan-15 19:31N 37°57' E 023°35'0 0.0
2015-Jan-15 18:31N 37°57' E 023°35'0 0.0
2015-Jan-15 17:31N 37°57' E 023°35'0 0.0
2015-Jan-15 16:33N 37°57' E 023°35'0 0.0
2015-Jan-15 15:31N 37°57' E 023°35'0 0.0
2015-Jan-15 14:28N 37°57' E 023°35'0 0.0
2015-Jan-15 13:31N 37°57' E 023°35'0 0.0
2015-Jan-15 12:31N 37°57' E 023°35'0 0.0
2015-Jan-15 11:31N 37°57' E 023°35'0 0.0
2015-Jan-15 10:31N 37°57' E 023°35'0 0.0
2015-Jan-15 09:31N 37°57' E 023°35'0 0.0
2015-Jan-15 08:31N 37°57' E 023°35'0 0.0
2015-Jan-15 07:31N 37°57' E 023°35'0 0.0
2015-Jan-15 06:28N 37°57' E 023°35'0 0.0
2015-Jan-15 05:33N 37°57' E 023°35'4 4.1
2015-Jan-15 04:33N 37°54' E 023°37'5 4.6
2015-Jan-15 03:33N 37°50' E 023°40'5 5.2
2015-Jan-15 02:33N 37°45' E 023°42'6 6.4
2015-Jan-15 01:33N 37°39' E 023°46'8 7.2
2015-Jan-15 00:28N 37°32' E 023°43'24 7.4
2015-Jan-14 21:12N 37°08' E 023°36'5 8.2
2015-Jan-14 20:33N 37°03' E 023°35'8 8.0
2015-Jan-14 19:33N 36°55' E 023°34'10 8.2
2015-Jan-14 18:17N 36°45' E 023°33'  

Dump ship's entire track history